sensor_id;sensor_type;location;lat;lon;timestamp;pressure;altitude;pressure_sealevel;temperature;humidity
9774;BME280;4926;42.670;23.316;2023-12-14T00:01:18;93560.56;;;6.76;100.00
9774;BME280;4926;42.670;23.316;2023-12-14T00:03:45;93587.06;;;6.90;100.00
9774;BME280;4926;42.670;23.316;2023-12-14T00:06:12;93580.78;;;6.86;100.00
9774;BME280;4926;42.670;23.316;2023-12-14T00:08:39;93550.97;;;6.80;100.00
9774;BME280;4926;42.670;23.316;2023-12-14T00:11:08;93564.84;;;6.72;100.00
9774;BME280;4926;42.670;23.316;2023-12-14T00:13:39;93559.19;;;6.79;100.00
9774;BME280;4926;42.670;23.316;2023-12-14T00:16:09;93564.69;;;6.82;100.00
9774;BME280;4926;42.670;23.316;2023-12-14T00:18:36;93589.78;;;6.85;100.00
9774;BME280;4926;42.670;23.316;2023-12-14T00:21:03;93583.50;;;6.81;100.00
9774;BME280;4926;42.670;23.316;2023-12-14T00:23:30;93570.63;;;6.93;100.00
9774;BME280;4926;42.670;23.316;2023-12-14T00:26:00;93574.56;;;6.96;100.00
9774;BME280;4926;42.670;23.316;2023-12-14T00:28:27;93554.19;;;6.96;100.00
9774;BME280;4926;42.670;23.316;2023-12-14T00:30:56;93598.16;;;6.92;100.00
9774;BME280;4926;42.670;23.316;2023-12-14T00:33:23;93571.78;;;6.87;100.00
9774;BME280;4926;42.670;23.316;2023-12-14T00:35:49;93574.63;;;6.91;100.00
9774;BME280;4926;42.670;23.316;2023-12-14T00:38:17;93575.13;;;6.93;100.00
9774;BME280;4926;42.670;23.316;2023-12-14T00:40:44;93572.75;;;6.91;100.00
9774;BME280;4926;42.670;23.316;2023-12-14T00:43:11;93552.69;;;6.90;100.00
9774;BME280;4926;42.670;23.316;2023-12-14T00:45:38;93590.22;;;6.92;100.00
9774;BME280;4926;42.670;23.316;2023-12-14T00:48:08;93563.97;;;6.96;100.00
9774;BME280;4926;42.670;23.316;2023-12-14T00:50:38;93569.25;;;6.96;100.00
9774;BME280;4926;42.670;23.316;2023-12-14T00:53:08;93558.56;;;6.87;100.00
9774;BME280;4926;42.670;23.316;2023-12-14T00:55:37;93565.13;;;6.90;100.00
9774;BME280;4926;42.670;23.316;2023-12-14T00:58:04;93546.88;;;6.88;100.00
9774;BME280;4926;42.670;23.316;2023-12-14T01:00:31;93578.84;;;6.92;100.00
9774;BME280;4926;42.670;23.316;2023-12-14T01:02:58;93561.97;;;6.88;100.00
9774;BME280;4926;42.670;23.316;2023-12-14T01:05:26;93590.22;;;6.92;100.00
9774;BME280;4926;42.670;23.316;2023-12-14T01:07:56;93565.13;;;6.90;100.00
9774;BME280;4926;42.670;23.316;2023-12-14T01:10:23;93575.69;;;6.90;100.00
9774;BME280;4926;42.670;23.316;2023-12-14T01:12:49;93563.75;;;6.92;100.00
9774;BME280;4926;42.670;23.316;2023-12-14T01:15:16;93570.28;;;7.00;100.00
9774;BME280;4926;42.670;23.316;2023-12-14T01:17:43;93567.34;;;7.01;100.00
9774;BME280;4926;42.670;23.316;2023-12-14T01:20:13;93561.13;;;6.92;100.00
9774;BME280;4926;42.670;23.316;2023-12-14T01:22:41;93577.56;;;6.89;100.00
9774;BME280;4926;42.670;23.316;2023-12-14T01:25:08;93549.44;;;6.93;100.00
9774;BME280;4926;42.670;23.316;2023-12-14T01:27:36;93572.28;;;6.89;100.00
9774;BME280;4926;42.670;23.316;2023-12-14T01:30:07;93544.94;;;6.94;100.00
9774;BME280;4926;42.670;23.316;2023-12-14T01:32:34;93555.31;;;6.90;100.00
9774;BME280;4926;42.670;23.316;2023-12-14T01:35:01;93597.66;;;6.90;100.00
9774;BME280;4926;42.670;23.316;2023-12-14T01:37:28;93550.75;;;6.77;100.00
9774;BME280;4926;42.670;23.316;2023-12-14T01:39:59;93569.91;;;6.69;100.00
9774;BME280;4926;42.670;23.316;2023-12-14T01:42:26;93555.97;;;6.63;100.00
9774;BME280;4926;42.670;23.316;2023-12-14T01:44:53;93580.50;;;6.69;100.00
9774;BME280;4926;42.670;23.316;2023-12-14T01:47:22;93568.78;;;6.75;100.00
9774;BME280;4926;42.670;23.316;2023-12-14T01:49:49;93562.50;;;6.71;100.00
9774;BME280;4926;42.670;23.316;2023-12-14T01:52:15;93561.41;;;6.72;100.00
9774;BME280;4926;42.670;23.316;2023-12-14T01:54:47;93560.84;;;6.75;100.00
9774;BME280;4926;42.670;23.316;2023-12-14T01:57:15;93569.72;;;6.65;100.00
9774;BME280;4926;42.670;23.316;2023-12-14T01:59:45;93548.63;;;6.60;100.00
9774;BME280;4926;42.670;23.316;2023-12-14T02:02:12;93554.34;;;6.67;100.00
9774;BME280;4926;42.670;23.316;2023-12-14T02:04:40;93556.56;;;6.60;100.00
9774;BME280;4926;42.670;23.316;2023-12-14T02:07:06;93560.91;;;6.70;100.00
9774;BME280;4926;42.670;23.316;2023-12-14T02:09:33;93533.56;;;6.61;100.00
9774;BME280;4926;42.670;23.316;2023-12-14T02:12:00;93542.25;;;6.61;100.00
9774;BME280;4926;42.670;23.316;2023-12-14T02:14:29;93557.56;;;6.64;100.00
9774;BME280;4926;42.670;23.316;2023-12-14T02:16:56;93525.06;;;6.64;100.00
9774;BME280;4926;42.670;23.316;2023-12-14T02:19:25;93547.22;;;6.68;100.00
9774;BME280;4926;42.670;23.316;2023-12-14T02:21:52;93527.09;;;6.67;100.00
9774;BME280;4926;42.670;23.316;2023-12-14T02:24:23;93512.00;;;6.54;100.00
9774;BME280;4926;42.670;23.316;2023-12-14T02:26:51;93520.25;;;6.66;100.00
9774;BME280;4926;42.670;23.316;2023-12-14T02:29:18;93517.47;;;6.76;100.00
9774;BME280;4926;42.670;23.316;2023-12-14T02:31:46;93550.63;;;6.87;100.00
9774;BME280;4926;42.670;23.316;2023-12-14T02:34:13;93515.22;;;6.83;100.00
9774;BME280;4926;42.670;23.316;2023-12-14T02:36:40;93521.41;;;6.78;100.00
9774;BME280;4926;42.670;23.316;2023-12-14T02:39:10;93535.88;;;6.81;100.00
9774;BME280;4926;42.670;23.316;2023-12-14T02:41:41;93523.03;;;6.74;100.00
9774;BME280;4926;42.670;23.316;2023-12-14T02:44:13;93533.31;;;6.76;100.00
9774;BME280;4926;42.670;23.316;2023-12-14T02:46:39;93555.22;;;6.63;100.00
9774;BME280;4926;42.670;23.316;2023-12-14T02:49:06;93529.38;;;6.73;100.00
9774;BME280;4926;42.670;23.316;2023-12-14T02:51:33;93538.97;;;6.69;100.00
9774;BME280;4926;42.670;23.316;2023-12-14T02:54:04;93542.34;;;6.75;100.00
9774;BME280;4926;42.670;23.316;2023-12-14T02:56:31;93534.34;;;6.80;100.00
9774;BME280;4926;42.670;23.316;2023-12-14T02:59:06;93555.50;;;6.80;100.00
9774;BME280;4926;42.670;23.316;2023-12-14T03:01:36;93526.91;;;6.82;100.00
9774;BME280;4926;42.670;23.316;2023-12-14T03:04:03;93563.84;;;6.87;100.00
9774;BME280;4926;42.670;23.316;2023-12-14T03:06:30;93561.69;;;6.70;100.00
9774;BME280;4926;42.670;23.316;2023-12-14T03:08:57;93537.69;;;6.67;100.00
9774;BME280;4926;42.670;23.316;2023-12-14T03:11:23;93540.88;;;6.82;100.00
9774;BME280;4926;42.670;23.316;2023-12-14T03:13:50;93510.34;;;6.90;100.00
9774;BME280;4926;42.670;23.316;2023-12-14T03:16:19;93543.31;;;6.98;100.00
9774;BME280;4926;42.670;23.316;2023-12-14T03:18:46;93530.50;;;7.05;100.00
9774;BME280;4926;42.670;23.316;2023-12-14T03:21:17;93503.25;;;7.04;100.00
9774;BME280;4926;42.670;23.316;2023-12-14T03:23:47;93528.97;;;7.17;100.00
9774;BME280;4926;42.670;23.316;2023-12-14T03:26:14;93534.66;;;7.24;100.00
9774;BME280;4926;42.670;23.316;2023-12-14T03:28:43;93499.50;;;7.05;100.00
9774;BME280;4926;42.670;23.316;2023-12-14T03:31:11;93514.25;;;7.11;100.00
9774;BME280;4926;42.670;23.316;2023-12-14T03:33:41;93515.66;;;7.22;100.00
9774;BME280;4926;42.670;23.316;2023-12-14T03:36:08;93496.81;;;7.10;100.00
9774;BME280;4926;42.670;23.316;2023-12-14T03:38:35;93505.63;;;7.19;100.00
9774;BME280;4926;42.670;23.316;2023-12-14T03:41:02;93496.44;;;7.17;100.00
9774;BME280;4926;42.670;23.316;2023-12-14T03:43:29;93498.78;;;7.18;100.00
9774;BME280;4926;42.670;23.316;2023-12-14T03:45:56;93494.94;;;7.24;100.00
9774;BME280;4926;42.670;23.316;2023-12-14T03:48:23;93482.31;;;7.21;100.00
9774;BME280;4926;42.670;23.316;2023-12-14T03:50:51;93488.19;;;7.18;100.00
9774;BME280;4926;42.670;23.316;2023-12-14T03:53:18;93491.84;;;7.22;100.00
9774;BME280;4926;42.670;23.316;2023-12-14T03:55:46;93475.66;;;7.10;100.00
9774;BME280;4926;42.670;23.316;2023-12-14T03:58:13;93489.13;;;7.09;100.00
9774;BME280;4926;42.670;23.316;2023-12-14T04:00:39;93469.53;;;6.96;100.00
9774;BME280;4926;42.670;23.316;2023-12-14T04:03:06;93494.63;;;7.12;100.00
9774;BME280;4926;42.670;23.316;2023-12-14T04:05:33;93491.53;;;7.10;100.00
9774;BME280;4926;42.670;23.316;2023-12-14T04:08:05;93489.34;;;7.12;100.00
9774;BME280;4926;42.670;23.316;2023-12-14T04:10:32;93505.66;;;6.87;100.00
9774;BME280;4926;42.670;23.316;2023-12-14T04:12:59;93497.81;;;6.82;100.00
9774;BME280;4926;42.670;23.316;2023-12-14T04:15:26;93495.56;;;6.89;100.00
9774;BME280;4926;42.670;23.316;2023-12-14T04:17:54;93515.91;;;6.75;100.00
9774;BME280;4926;42.670;23.316;2023-12-14T04:20:21;93503.81;;;6.69;100.00
9774;BME280;4926;42.670;23.316;2023-12-14T04:22:48;93510.25;;;6.82;100.00
9774;BME280;4926;42.670;23.316;2023-12-14T04:25:16;93504.47;;;6.61;100.00
9774;BME280;4926;42.670;23.316;2023-12-14T04:27:46;93500.44;;;6.82;100.00
9774;BME280;4926;42.670;23.316;2023-12-14T04:30:13;93506.38;;;6.93;100.00
9774;BME280;4926;42.670;23.316;2023-12-14T04:32:42;93489.03;;;6.68;100.00
9774;BME280;4926;42.670;23.316;2023-12-14T04:35:10;93491.34;;;6.56;100.00
9774;BME280;4926;42.670;23.316;2023-12-14T04:37:37;93492.22;;;6.65;100.00
9774;BME280;4926;42.670;23.316;2023-12-14T04:40:05;93519.31;;;6.75;100.00
9774;BME280;4926;42.670;23.316;2023-12-14T04:42:34;93513.31;;;6.70;100.00
9774;BME280;4926;42.670;23.316;2023-12-14T04:45:01;93498.59;;;6.64;100.00
9774;BME280;4926;42.670;23.316;2023-12-14T04:47:28;93509.53;;;6.76;100.00
9774;BME280;4926;42.670;23.316;2023-12-14T04:49:55;93499.88;;;6.85;100.00
9774;BME280;4926;42.670;23.316;2023-12-14T04:52:22;93493.25;;;6.69;100.00
9774;BME280;4926;42.670;23.316;2023-12-14T04:54:49;93524.88;;;6.74;100.00
9774;BME280;4926;42.670;23.316;2023-12-14T04:57:16;93481.94;;;6.82;100.00
9774;BME280;4926;42.670;23.316;2023-12-14T04:59:47;93534.53;;;6.84;100.00
9774;BME280;4926;42.670;23.316;2023-12-14T05:02:13;93511.09;;;6.77;100.00
9774;BME280;4926;42.670;23.316;2023-12-14T05:04:40;93500.81;;;6.75;100.00
9774;BME280;4926;42.670;23.316;2023-12-14T05:07:07;93523.59;;;6.90;100.00
9774;BME280;4926;42.670;23.316;2023-12-14T05:09:35;93492.78;;;6.80;100.00
9774;BME280;4926;42.670;23.316;2023-12-14T05:12:05;93513.16;;;6.80;100.00
9774;BME280;4926;42.670;23.316;2023-12-14T05:14:32;93503.72;;;6.74;100.00
9774;BME280;4926;42.670;23.316;2023-12-14T05:17:00;93510.03;;;6.78;100.00
9774;BME280;4926;42.670;23.316;2023-12-14T05:19:28;93497.06;;;6.63;100.00
9774;BME280;4926;42.670;23.316;2023-12-14T05:21:55;93512.16;;;6.76;100.00
9774;BME280;4926;42.670;23.316;2023-12-14T05:24:25;93482.81;;;6.59;100.00
9774;BME280;4926;42.670;23.316;2023-12-14T05:26:52;93518.13;;;6.68;100.00
9774;BME280;4926;42.670;23.316;2023-12-14T05:29:19;93496.81;;;6.78;100.00
9774;BME280;4926;42.670;23.316;2023-12-14T05:31:47;93516.03;;;6.84;100.00
9774;BME280;4926;42.670;23.316;2023-12-14T05:34:15;93512.59;;;6.83;100.00
9774;BME280;4926;42.670;23.316;2023-12-14T05:36:45;93523.88;;;6.89;100.00
9774;BME280;4926;42.670;23.316;2023-12-14T05:39:12;93519.16;;;6.86;100.00
9774;BME280;4926;42.670;23.316;2023-12-14T05:41:40;93521.84;;;6.99;100.00
9774;BME280;4926;42.670;23.316;2023-12-14T05:44:07;93522.06;;;6.84;100.00
9774;BME280;4926;42.670;23.316;2023-12-14T05:46:37;93534.59;;;6.97;100.00
9774;BME280;4926;42.670;23.316;2023-12-14T05:49:04;93551.47;;;7.01;100.00
9774;BME280;4926;42.670;23.316;2023-12-14T05:51:34;93518.97;;;6.82;100.00
9774;BME280;4926;42.670;23.316;2023-12-14T05:54:03;93537.53;;;6.96;100.00
9774;BME280;4926;42.670;23.316;2023-12-14T05:56:30;93544.75;;;6.90;100.00
9774;BME280;4926;42.670;23.316;2023-12-14T05:58:59;93533.59;;;6.93;100.00
9774;BME280;4926;42.670;23.316;2023-12-14T06:01:29;93526.94;;;6.96;100.00
9774;BME280;4926;42.670;23.316;2023-12-14T06:03:56;93545.78;;;7.08;100.00
9774;BME280;4926;42.670;23.316;2023-12-14T06:06:24;93527.72;;;6.96;100.00
9774;BME280;4926;42.670;23.316;2023-12-14T06:08:52;93540.19;;;7.09;100.00
9774;BME280;4926;42.670;23.316;2023-12-14T06:11:22;93546.59;;;7.08;100.00
9774;BME280;4926;42.670;23.316;2023-12-14T06:13:51;93515.38;;;7.05;100.00
9774;BME280;4926;42.670;23.316;2023-12-14T06:16:18;93547.81;;;7.29;100.00
9774;BME280;4926;42.670;23.316;2023-12-14T06:18:47;93552.28;;;7.15;100.00
9774;BME280;4926;42.670;23.316;2023-12-14T06:21:16;93548.19;;;7.23;100.00
9774;BME280;4926;42.670;23.316;2023-12-14T06:23:43;93548.69;;;7.25;100.00
9774;BME280;4926;42.670;23.316;2023-12-14T06:26:11;93572.19;;;7.26;100.00
9774;BME280;4926;42.670;23.316;2023-12-14T06:28:38;93571.31;;;7.17;100.00
9774;BME280;4926;42.670;23.316;2023-12-14T06:31:05;93561.50;;;7.18;100.00
9774;BME280;4926;42.670;23.316;2023-12-14T06:33:33;93565.47;;;7.34;100.00
9774;BME280;4926;42.670;23.316;2023-12-14T06:36:03;93558.81;;;7.36;100.00
9774;BME280;4926;42.670;23.316;2023-12-14T06:38:31;93570.22;;;7.50;100.00
9774;BME280;4926;42.670;23.316;2023-12-14T06:40:58;93575.94;;;7.57;100.00
9774;BME280;4926;42.670;23.316;2023-12-14T06:43:27;93570.78;;;7.47;100.00
9774;BME280;4926;42.670;23.316;2023-12-14T06:45:56;93588.06;;;7.58;100.00
9774;BME280;4926;42.670;23.316;2023-12-14T06:48:25;93577.06;;;7.51;100.00
9774;BME280;4926;42.670;23.316;2023-12-14T06:50:56;93584.94;;;7.70;100.00
9774;BME280;4926;42.670;23.316;2023-12-14T06:53:23;93586.53;;;7.84;100.00
9774;BME280;4926;42.670;23.316;2023-12-14T06:55:50;93599.50;;;7.86;100.00
9774;BME280;4926;42.670;23.316;2023-12-14T06:58:17;93581.25;;;7.84;100.00
9774;BME280;4926;42.670;23.316;2023-12-14T07:00:46;93600.69;;;7.93;100.00
9774;BME280;4926;42.670;23.316;2023-12-14T07:03:16;93594.78;;;7.97;100.00
9774;BME280;4926;42.670;23.316;2023-12-14T07:05:43;93573.59;;;7.69;100.00
9774;BME280;4926;42.670;23.316;2023-12-14T07:08:09;93587.34;;;7.85;100.00
9774;BME280;4926;42.670;23.316;2023-12-14T07:10:36;93584.50;;;7.81;100.00
9774;BME280;4926;42.670;23.316;2023-12-14T07:13:03;93608.53;;;7.85;100.00
9774;BME280;4926;42.670;23.316;2023-12-14T07:15:30;93590.28;;;7.83;100.00
9774;BME280;4926;42.670;23.316;2023-12-14T07:18:01;93598.28;;;7.78;100.00
9774;BME280;4926;42.670;23.316;2023-12-14T07:20:27;93606.94;;;7.84;100.00
9774;BME280;4926;42.670;23.316;2023-12-14T07:22:54;93604.41;;;7.92;100.00
9774;BME280;4926;42.670;23.316;2023-12-14T07:25:24;93611.28;;;7.93;100.00
9774;BME280;4926;42.670;23.316;2023-12-14T07:27:51;93623.28;;;8.05;100.00
9774;BME280;4926;42.670;23.316;2023-12-14T07:30:18;93612.47;;;8.15;100.00
9774;BME280;4926;42.670;23.316;2023-12-14T07:32:45;93622.91;;;8.25;100.00
9774;BME280;4926;42.670;23.316;2023-12-14T07:35:13;93624.59;;;8.48;100.00
9774;BME280;4926;42.670;23.316;2023-12-14T07:37:40;93602.53;;;8.61;100.00
9774;BME280;4926;42.670;23.316;2023-12-14T07:40:08;93610.91;;;8.54;100.00
9774;BME280;4926;42.670;23.316;2023-12-14T07:42:35;93622.53;;;8.45;100.00
9774;BME280;4926;42.670;23.316;2023-12-14T07:45:06;93630.56;;;8.53;100.00
9774;BME280;4926;42.670;23.316;2023-12-14T07:47:34;93634.94;;;8.71;100.00
9774;BME280;4926;42.670;23.316;2023-12-14T07:50:02;93632.69;;;8.78;100.00
9774;BME280;4926;42.670;23.316;2023-12-14T07:52:31;93613.66;;;8.63;100.00
9774;BME280;4926;42.670;23.316;2023-12-14T07:54:58;93624.41;;;8.80;100.00
9774;BME280;4926;42.670;23.316;2023-12-14T07:57:24;93620.44;;;8.69;100.00
9774;BME280;4926;42.670;23.316;2023-12-14T07:59:51;93628.00;;;8.62;100.00
9774;BME280;4926;42.670;23.316;2023-12-14T08:02:19;93651.44;;;8.95;100.00
9774;BME280;4926;42.670;23.316;2023-12-14T08:04:51;93635.53;;;9.18;100.00
9774;BME280;4926;42.670;23.316;2023-12-14T08:07:18;93622.34;;;9.26;100.00
9774;BME280;4926;42.670;23.316;2023-12-14T08:09:46;93628.38;;;9.40;100.00
9774;BME280;4926;42.670;23.316;2023-12-14T08:12:13;93628.97;;;9.59;99.32
9774;BME280;4926;42.670;23.316;2023-12-14T08:14:43;93631.50;;;9.86;97.83
9774;BME280;4926;42.670;23.316;2023-12-14T08:17:10;93616.41;;;9.73;95.38
9774;BME280;4926;42.670;23.316;2023-12-14T08:19:37;93615.94;;;9.49;96.17
9774;BME280;4926;42.670;23.316;2023-12-14T08:22:04;93632.63;;;9.63;96.39
9774;BME280;4926;42.670;23.316;2023-12-14T08:24:31;93645.06;;;9.85;96.48
9774;BME280;4926;42.670;23.316;2023-12-14T08:27:02;93642.72;;;10.05;94.85
9774;BME280;4926;42.670;23.316;2023-12-14T08:29:29;93645.97;;;10.02;93.30
9774;BME280;4926;42.670;23.316;2023-12-14T08:31:55;93631.69;;;10.21;93.22
9774;BME280;4926;42.670;23.316;2023-12-14T08:34:24;93639.06;;;10.24;91.10
9774;BME280;4926;42.670;23.316;2023-12-14T08:36:51;93650.63;;;10.19;91.50
9774;BME280;4926;42.670;23.316;2023-12-14T08:39:18;93628.31;;;10.29;91.33
9774;BME280;4926;42.670;23.316;2023-12-14T08:41:46;93642.75;;;10.45;90.88
9774;BME280;4926;42.670;23.316;2023-12-14T08:44:17;93644.22;;;10.59;89.33
9774;BME280;4926;42.670;23.316;2023-12-14T08:46:46;93642.19;;;10.56;88.37
9774;BME280;4926;42.670;23.316;2023-12-14T08:49:15;93634.19;;;10.56;87.62
9774;BME280;4926;42.670;23.316;2023-12-14T08:51:42;93649.88;;;10.75;87.47
9774;BME280;4926;42.670;23.316;2023-12-14T08:54:11;93644.28;;;10.93;86.62
9774;BME280;4926;42.670;23.316;2023-12-14T08:56:41;93639.66;;;11.16;85.97
9774;BME280;4926;42.670;23.316;2023-12-14T08:59:11;93636.34;;;11.02;84.57
9774;BME280;4926;42.670;23.316;2023-12-14T09:01:39;93625.97;;;10.92;85.84
9774;BME280;4926;42.670;23.316;2023-12-14T09:04:07;93625.81;;;10.97;85.27
9774;BME280;4926;42.670;23.316;2023-12-14T09:06:34;93631.31;;;11.09;84.56
9774;BME280;4926;42.670;23.316;2023-12-14T09:09:01;93653.28;;;11.32;84.45
9774;BME280;4926;42.670;23.316;2023-12-14T09:11:31;93642.94;;;11.47;82.95
9774;BME280;4926;42.670;23.316;2023-12-14T09:14:00;93631.50;;;11.21;82.62
9774;BME280;4926;42.670;23.316;2023-12-14T09:16:27;93626.59;;;11.06;83.84
9774;BME280;4926;42.670;23.316;2023-12-14T09:18:56;93619.88;;;11.00;83.94
9774;BME280;4926;42.670;23.316;2023-12-14T09:21:25;93632.25;;;11.13;83.56
9774;BME280;4926;42.670;23.316;2023-12-14T09:23:52;93637.91;;;11.11;84.02
9774;BME280;4926;42.670;23.316;2023-12-14T09:26:19;93622.56;;;11.17;83.82
9774;BME280;4926;42.670;23.316;2023-12-14T09:28:46;93610.34;;;11.16;83.42
9774;BME280;4926;42.670;23.316;2023-12-14T09:31:19;93627.09;;;11.25;82.96
9774;BME280;4926;42.670;23.316;2023-12-14T09:33:47;93643.22;;;11.37;82.97
9774;BME280;4926;42.670;23.316;2023-12-14T09:36:18;93635.72;;;11.56;81.64
9774;BME280;4926;42.670;23.316;2023-12-14T09:38:47;93633.53;;;11.84;80.68
9774;BME280;4926;42.670;23.316;2023-12-14T09:41:14;93632.06;;;12.03;79.22
9774;BME280;4926;42.670;23.316;2023-12-14T09:43:46;93624.66;;;12.09;78.43
9774;BME280;4926;42.670;23.316;2023-12-14T09:46:15;93628.22;;;12.30;78.12
9774;BME280;4926;42.670;23.316;2023-12-14T09:48:44;93647.16;;;12.46;77.17
9774;BME280;4926;42.670;23.316;2023-12-14T09:51:15;93638.69;;;12.44;75.66
9774;BME280;4926;42.670;23.316;2023-12-14T09:53:42;93621.94;;;12.34;75.84
9774;BME280;4926;42.670;23.316;2023-12-14T09:56:09;93638.34;;;12.54;74.83
9774;BME280;4926;42.670;23.316;2023-12-14T09:58:36;93640.00;;;12.67;74.39
9774;BME280;4926;42.670;23.316;2023-12-14T10:01:21;93645.31;;;12.75;74.29
9774;BME280;4926;42.670;23.316;2023-12-14T10:03:48;93636.97;;;12.77;72.87
9774;BME280;4926;42.670;23.316;2023-12-14T10:06:17;93639.66;;;12.77;73.19
9774;BME280;4926;42.670;23.316;2023-12-14T10:08:56;93624.09;;;12.79;73.59
9774;BME280;4926;42.670;23.316;2023-12-14T10:11:23;93634.78;;;12.79;73.59
9774;BME280;4926;42.670;23.316;2023-12-14T10:13:52;93634.78;;;12.79;73.42
9774;BME280;4926;42.670;23.316;2023-12-14T10:16:29;93643.88;;;12.78;73.89
9774;BME280;4926;42.670;23.316;2023-12-14T10:18:59;93636.59;;;12.87;73.92
9774;BME280;4926;42.670;23.316;2023-12-14T10:21:28;93637.97;;;12.93;73.16
9774;BME280;4926;42.670;23.316;2023-12-14T10:23:56;93619.91;;;12.90;73.03
9774;BME280;4926;42.670;23.316;2023-12-14T10:28:53;93614.97;;;12.80;73.34
9774;BME280;4926;42.670;23.316;2023-12-14T10:31:23;93639.19;;;12.75;73.45
9774;BME280;4926;42.670;23.316;2023-12-14T10:33:53;93633.84;;;12.75;73.09
9774;BME280;4926;42.670;23.316;2023-12-14T10:36:29;93645.47;;;12.79;74.24
9774;BME280;4926;42.670;23.316;2023-12-14T10:38:59;93661.97;;;12.72;79.10
9774;BME280;4926;42.670;23.316;2023-12-14T10:41:26;93671.88;;;12.63;81.36
9774;BME280;4926;42.670;23.316;2023-12-14T10:43:56;93686.53;;;12.57;83.97
9774;BME280;4926;42.670;23.316;2023-12-14T10:46:23;93687.94;;;12.55;85.77
9774;BME280;4926;42.670;23.316;2023-12-14T10:48:51;93695.97;;;12.46;86.86
9774;BME280;4926;42.670;23.316;2023-12-14T10:51:21;93715.00;;;12.36;89.30
9774;BME280;4926;42.670;23.316;2023-12-14T10:53:50;93712.38;;;12.27;90.58
9774;BME280;4926;42.670;23.316;2023-12-14T10:56:17;93732.47;;;12.16;92.46
9774;BME280;4926;42.670;23.316;2023-12-14T10:58:46;93732.97;;;12.01;96.19
9774;BME280;4926;42.670;23.316;2023-12-14T11:01:14;93736.09;;;11.86;98.44
9774;BME280;4926;42.670;23.316;2023-12-14T11:03:44;93743.94;;;11.74;100.00
9774;BME280;4926;42.670;23.316;2023-12-14T11:06:28;93754.28;;;11.67;100.00
9774;BME280;4926;42.670;23.316;2023-12-14T11:08:58;93758.34;;;11.56;100.00
9774;BME280;4926;42.670;23.316;2023-12-14T11:11:29;93746.41;;;11.45;100.00
9774;BME280;4926;42.670;23.316;2023-12-14T11:13:56;93752.03;;;11.35;100.00
9774;BME280;4926;42.670;23.316;2023-12-14T11:16:26;93743.38;;;11.21;100.00
9774;BME280;4926;42.670;23.316;2023-12-14T11:22:22;93762.69;;;10.87;100.00
9774;BME280;4926;42.670;23.316;2023-12-14T11:24:54;93766.38;;;10.78;100.00
9774;BME280;4926;42.670;23.316;2023-12-14T11:27:29;93776.56;;;10.76;100.00
9774;BME280;4926;42.670;23.316;2023-12-14T11:29:56;93764.41;;;10.53;100.00
9774;BME280;4926;42.670;23.316;2023-12-14T11:32:26;93778.59;;;10.48;100.00
9774;BME280;4926;42.670;23.316;2023-12-14T11:34:56;93776.19;;;10.38;100.00
9774;BME280;4926;42.670;23.316;2023-12-14T11:37:23;93768.53;;;10.37;100.00
9774;BME280;4926;42.670;23.316;2023-12-14T11:39:51;93784.25;;;10.25;100.00
9774;BME280;4926;42.670;23.316;2023-12-14T11:42:21;93772.53;;;10.26;99.09
9774;BME280;4926;42.670;23.316;2023-12-14T11:44:48;93784.97;;;10.17;98.02
9774;BME280;4926;42.670;23.316;2023-12-14T11:47:15;93783.13;;;10.03;99.25
9774;BME280;4926;42.670;23.316;2023-12-14T11:49:42;93791.41;;;10.02;99.23
9774;BME280;4926;42.670;23.316;2023-12-14T11:52:11;93801.50;;;9.91;99.85
9774;BME280;4926;42.670;23.316;2023-12-14T11:54:38;93805.03;;;9.87;99.96
9774;BME280;4926;42.670;23.316;2023-12-14T11:57:05;93799.53;;;9.83;100.00
9774;BME280;4926;42.670;23.316;2023-12-14T11:59:37;93802.19;;;9.83;99.19
9774;BME280;4926;42.670;23.316;2023-12-14T12:02:04;93819.78;;;9.71;98.94
9774;BME280;4926;42.670;23.316;2023-12-14T12:04:31;93814.72;;;9.69;98.76
9774;BME280;4926;42.670;23.316;2023-12-14T12:07:00;93819.47;;;9.72;98.86
9774;BME280;4926;42.670;23.316;2023-12-14T12:09:35;93832.56;;;9.69;98.44
9774;BME280;4926;42.670;23.316;2023-12-14T12:12:05;93828.63;;;9.66;98.80
9774;BME280;4926;42.670;23.316;2023-12-14T12:14:32;93840.06;;;9.67;99.10
9774;BME280;4926;42.670;23.316;2023-12-14T12:17:02;93839.44;;;9.70;98.29
9774;BME280;4926;42.670;23.316;2023-12-14T12:19:31;93826.28;;;9.65;98.92
9774;BME280;4926;42.670;23.316;2023-12-14T12:21:58;93831.28;;;9.66;98.66
9774;BME280;4926;42.670;23.316;2023-12-14T12:24:25;93830.69;;;9.69;98.02
9774;BME280;4926;42.670;23.316;2023-12-14T12:26:52;93835.03;;;9.65;97.37
9774;BME280;4926;42.670;23.316;2023-12-14T12:29:19;93849.00;;;9.57;98.13
9774;BME280;4926;42.670;23.316;2023-12-14T12:31:46;93832.75;;;9.59;97.47
9774;BME280;4926;42.670;23.316;2023-12-14T12:34:14;93830.81;;;9.51;97.65
9774;BME280;4926;42.670;23.316;2023-12-14T12:36:43;93826.88;;;9.48;97.98
9774;BME280;4926;42.670;23.316;2023-12-14T12:39:10;93824.81;;;9.45;98.75
9774;BME280;4926;42.670;23.316;2023-12-14T12:41:37;93827.28;;;9.42;99.46
9774;BME280;4926;42.670;23.316;2023-12-14T12:44:04;93840.84;;;9.40;99.18
9774;BME280;4926;42.670;23.316;2023-12-14T12:46:34;93843.03;;;9.38;100.00
9774;BME280;4926;42.670;23.316;2023-12-14T12:49:02;93843.63;;;9.35;100.00
9774;BME280;4926;42.670;23.316;2023-12-14T12:51:31;93833.59;;;9.32;100.00
9774;BME280;4926;42.670;23.316;2023-12-14T12:53:58;93837.81;;;9.33;100.00
9774;BME280;4926;42.670;23.316;2023-12-14T12:56:28;93862.31;;;9.30;100.00
9774;BME280;4926;42.670;23.316;2023-12-14T12:58:55;93816.28;;;9.21;100.00
9774;BME280;4926;42.670;23.316;2023-12-14T13:01:22;93833.09;;;9.30;100.00
9774;BME280;4926;42.670;23.316;2023-12-14T13:03:53;93848.34;;;9.25;100.00
9774;BME280;4926;42.670;23.316;2023-12-14T13:06:20;93849.03;;;9.30;100.00
9774;BME280;4926;42.670;23.316;2023-12-14T13:08:49;93845.00;;;9.19;100.00
9774;BME280;4926;42.670;23.316;2023-12-14T13:11:19;93850.81;;;9.21;100.00
9774;BME280;4926;42.670;23.316;2023-12-14T13:13:48;93838.13;;;9.18;100.00
9774;BME280;4926;42.670;23.316;2023-12-14T13:16:15;93857.22;;;9.20;100.00
9774;BME280;4926;42.670;23.316;2023-12-14T13:18:43;93855.72;;;9.14;100.00
9774;BME280;4926;42.670;23.316;2023-12-14T13:21:11;93842.75;;;9.13;100.00
9774;BME280;4926;42.670;23.316;2023-12-14T13:23:38;93865.44;;;9.05;100.00